WetterOnline ( https://www.wetteronline.de )

Wetter aktuell Sonthofen/Oberallgäu

Aktuelles Wetter: Oberstdorf (812m)

6-stündlich | Neueste Meldungen
Ortszeit Temperatur Wetter
Do, 25.04. 8:00 3.2° C wolkenlos
Do, 25.04. 2:00 4.5° C wolkig
Mi, 24.04. 20:00 16.7° C wolkig
Mi, 24.04. 14:00 18.6° C bedeckt
Mi, 24.04. 8:00 6.6° C leicht bewölkt
Mi, 24.04. 2:00 7.0° C bedeckt
Di, 23.04. 20:00 14.7° C bedeckt
Di, 23.04. 14:00 18.7° C bedeckt
Ortszeit Temperatur Wetter
Do, 25.04. 10:10 17.6° C wolkig
Do, 25.04. 10:00 17.2° C wolkig
Do, 25.04. 9:50 17.2° C wolkig
Do, 25.04. 9:40 17.3° C leicht bewölkt
Do, 25.04. 9:30 17.7° C leicht bewölkt
Do, 25.04. 9:20 17.7° C leicht bewölkt
Do, 25.04. 9:00 12.9° C wolkenlos
Do, 25.04. 8:30 8.7° C fast wolkenlos
Do, 25.04. 8:00 3.2° C wolkenlos
Do, 25.04. 7:30 1.4° C wolkenlos
Ortszeit Relative Feuchte Sichtweite
Do, 25.04. 8:00 92% 70 km
Do, 25.04. 2:00 88% 70 km
Mi, 24.04. 20:00 35% 70 km
Mi, 24.04. 14:00 35% 70 km
Mi, 24.04. 8:00 77% 70 km
Mi, 24.04. 2:00 77% 70 km
Di, 23.04. 20:00 48% 70 km
Di, 23.04. 14:00 38% 70 km
Ortszeit Relative Feuchte Sichtweite
Do, 25.04. 10:10 30% -
Do, 25.04. 10:00 28% 70 km
Do, 25.04. 9:50 28% -
Do, 25.04. 9:40 37% -
Do, 25.04. 9:30 28% 60 km
Do, 25.04. 9:20 28% -
Do, 25.04. 9:00 59% 60 km
Do, 25.04. 8:30 78% 65 km
Do, 25.04. 8:00 92% 70 km
Do, 25.04. 7:30 92% 70 km
Ortszeit Niederschlagsmenge Niederschlagsart
Do, 25.04. 8:00 0.0 l/m2 in 12 Std. -
Do, 25.04. 2:00 0.0 l/m2 in 6 Std. -
Mi, 24.04. 20:00 0.0 l/m2 in 12 Std. -
Mi, 24.04. 14:00 0.0 l/m2 in 6 Std. -
Mi, 24.04. 8:00 0.0 l/m2 in 12 Std. -
Mi, 24.04. 2:00 0.0 l/m2 in 6 Std. -
Di, 23.04. 20:00 0.0 l/m2 in 12 Std. -
Di, 23.04. 14:00 0.0 l/m2 in 6 Std. -
Ortszeit Niederschlagsmenge Niederschlagsart
Do, 25.04. 10:10 keine Meldung -
Do, 25.04. 10:00 0.0 l/m2 in 1 Std. -
Do, 25.04. 9:50 keine Meldung -
Do, 25.04. 9:40 keine Meldung -
Do, 25.04. 9:30 0.0 l/m2 in 1 Std. -
Do, 25.04. 9:20 keine Meldung -
Do, 25.04. 9:00 0.0 l/m2 in 1 Std. -
Do, 25.04. 8:30 0.0 l/m2 in 1 Std. -
Do, 25.04. 8:00 0.0 l/m2 in 1 Std. -
Do, 25.04. 7:30 0.0 l/m2 in 1 Std. -
Ortszeit Stärke Spitze Richtung
km/h Bft. km/h Grad Sektor
Do, 25.04. 8:00 4 1 14 140° SO
Do, 25.04. 2:00 7 2 36 150° SO
Mi, 24.04. 20:00 6 1 50 190° S
Mi, 24.04. 14:00 15 3 46 180° S
Mi, 24.04. 8:00 2 1 17 360° N
Mi, 24.04. 2:00 7 2 22 170° S
Di, 23.04. 20:00 13 3 28 200° S
Di, 23.04. 14:00 4 1 18 310° NW
Ortszeit Stärke Spitze Richtung
km/h Bft. km/h Grad Sektor
Do, 25.04. 10:10 14 3 - 150° SO
Do, 25.04. 10:00 18 3 29 140° SO
Do, 25.04. 9:50 18 3 - 140° SO
Do, 25.04. 9:40 14 3 - 140° SO
Do, 25.04. 9:30 14 3 25 150° SO
Do, 25.04. 9:20 14 3 - 150° SO
Do, 25.04. 9:00 4 1 11 130° SO
Do, 25.04. 8:30 6 1 11 300° NW
Do, 25.04. 8:00 4 1 7 140° SO
Do, 25.04. 7:30 4 1 7 140° SO
Ortszeit Untergrenze Bedeckung Gattung
total tief tief mittel hoch
Do, 25.04. 8:00 9000 m 0/8 0/8 - - -
Do, 25.04. 2:00 7200 m 8/8 0/8 - - -
Mi, 24.04. 20:00 7200 m 8/8 0/8 - - -
Mi, 24.04. 14:00 5100 m 8/8 8/8 - - -
Mi, 24.04. 8:00 5100 m 4/8 4/8 - - -
Mi, 24.04. 2:00 4200 m 8/8 8/8 - - -
Di, 23.04. 20:00 5100 m 8/8 8/8 - - -
Di, 23.04. 14:00 3000 m 8/8 8/8 - - -
Ortszeit Bedeckungsgrad in Achtel und Wolkenuntergrenze
Do, 25.04. 10:10 4(7200m) 8(7800m)
Do, 25.04. 10:00 7(7800m)
Do, 25.04. 9:50 7(7800m)
Do, 25.04. 9:40 5(8100m) 6(8700m)
Do, 25.04. 9:30 5(8700m) 4(8700m)
Do, 25.04. 9:20 5(8700m)
Do, 25.04. 9:00 keine Wolken
Do, 25.04. 8:30 1(9000m)
Do, 25.04. 8:00 1(9000m)
Do, 25.04. 7:30 keine Wolken
Ortszeit Stationsdruck (hPa) Tendenz (hPa in 3 Std.)
Do, 25.04. 8:00 918 - 0,3
Do, 25.04. 2:00 918 + 1,2
Mi, 24.04. 20:00 914 + 1,4
Mi, 24.04. 14:00 913 + 0,4
Mi, 24.04. 8:00 912 + 1,3
Mi, 24.04. 2:00 910 + 0,7
Di, 23.04. 20:00 908 + 0,5
Di, 23.04. 14:00 908 + 0,2
Ortszeit Stationsdruck (hPa) Tendenz (hPa in 3 Std.)
Do, 25.04. 10:10 918 keine Meldung
Do, 25.04. 10:00 918 - 0,2
Do, 25.04. 9:50 918 keine Meldung
Do, 25.04. 9:40 918 keine Meldung
Do, 25.04. 9:30 918 - 0,2
Do, 25.04. 9:20 918 keine Meldung
Do, 25.04. 9:00 918 - 0,2
Do, 25.04. 8:30 918 - 0,1
Do, 25.04. 8:00 918 - 0,3
Do, 25.04. 7:30 918 - 0,3
Ortszeit Schneehöhe (cm)
Do, 25.04. 8:00 0
Do, 25.04. 2:00 0
Mi, 24.04. 20:00 0
Mi, 24.04. 14:00 0
Mi, 24.04. 8:00 0
Mi, 24.04. 2:00 0
Di, 23.04. 20:00 0
Di, 23.04. 14:00 0
Ortszeit Schneehöhe (cm)
Do, 25.04. 10:10 0
Do, 25.04. 10:00 0
Do, 25.04. 9:50 0
Do, 25.04. 9:40 0
Do, 25.04. 9:30 0
Do, 25.04. 9:20 0
Do, 25.04. 9:00 0
Do, 25.04. 8:30 0
Do, 25.04. 8:00 0
Do, 25.04. 7:30 0
Link zu dieser Seite / Seite empfehlen

Das Wetter in ...